Time;durP1;ratioP1;P1;durP2;ratioP2;P2;SDS_P1;SDS_P2;PMS_P1;PMS_P2;Temp;Humidity;BMP_temperature;BMP_pressure;BME280_temperature;BME280_humidity;BME280_pressure;Samples;Min_cycle;Max_cycle;Signal;HPM_P1;HPM_P2
2023/01/20 00:02:20;;;;;;;;;;;;;;;26.16;30.11;100297.75;5016262;28;2438;-29
2023/01/20 00:04:46;;;;;;;;;;;;;;;26.09;30.20;100286.03;5015563;28;1123;-29
2023/01/20 00:07:12;;;;;;;;;;;;;;;26.07;30.18;100293.50;5015894;28;1116;-29
2023/01/20 00:09:37;;;;;;;;;;;;;;;26.12;29.96;100292.94;5015766;28;1035;-29
2023/01/20 00:12:02;;;;;;;;;;;;;;;26.14;29.83;100298.97;5015546;28;1161;-29
2023/01/20 00:14:28;;;;;;;;;;;;;;;26.08;30.06;100297.84;5016008;28;1017;-29
2023/01/20 00:16:56;;;;;;;;;;;;;;;26.08;30.11;100289.75;5015790;28;1103;-29
2023/01/20 00:19:21;;;;;;;;;;;;;;;26.13;29.99;100300.81;5016444;28;1124;-29
2023/01/20 00:21:46;;;;;;;;;;;;;;;26.10;29.96;100297.66;5015417;28;1965;-29
2023/01/20 00:24:12;;;;;;;;;;;;;;;26.10;29.83;100295.81;5016015;28;1214;-29
2023/01/20 00:26:37;;;;;;;;;;;;;;;26.10;29.82;100290.41;5015833;28;1041;-29
2023/01/20 00:29:02;;;;;;;;;;;;;;;26.09;30.07;100296.00;5015435;28;1124;-29
2023/01/20 00:31:28;;;;;;;;;;;;;;;26.09;29.77;100280.66;5015722;28;2365;-29
2023/01/20 00:33:54;;;;;;;;;;;;;;;26.05;29.91;100276.66;5015894;28;997;-29
2023/01/20 00:36:20;;;;;;;;;;;;;;;26.10;29.74;100271.56;5015789;28;1048;-29
2023/01/20 00:38:45;;;;;;;;;;;;;;;26.08;29.81;100275.44;5016432;28;1161;-29
2023/01/20 00:41:10;;;;;;;;;;;;;;;26.08;29.89;100265.50;5014938;28;1955;-29
2023/01/20 00:43:36;;;;;;;;;;;;;;;26.09;29.55;100263.66;5016230;28;1092;-29
2023/01/20 00:46:02;;;;;;;;;;;;;;;26.07;29.65;100263.00;5015426;28;1131;-29
2023/01/20 00:48:27;;;;;;;;;;;;;;;26.12;29.89;100266.81;5015205;28;1036;-29
2023/01/20 00:50:52;;;;;;;;;;;;;;;26.08;29.90;100265.50;5014522;28;1213;-29
2023/01/20 00:53:18;;;;;;;;;;;;;;;26.06;29.90;100264.84;5015497;28;1116;-29
2023/01/20 00:55:43;;;;;;;;;;;;;;;26.00;29.98;100254.81;5015543;28;1661;-29
2023/01/20 00:58:09;;;;;;;;;;;;;;;26.07;29.88;100253.06;5018581;28;1250;-29
2023/01/20 01:00:34;;;;;;;;;;;;;;;26.32;29.81;100257.28;5019021;28;1961;-38
2023/01/20 01:16:37;;;;;;;;;;;;;;;23.23;33.58;100214.56;5088000;28;1320;-25
2023/01/20 01:19:03;;;;;;;;;;;;;;;24.52;31.37;100219.16;5107365;28;866;-25
2023/01/20 01:21:28;;;;;;;;;;;;;;;25.15;30.14;100215.47;5113608;28;1006;-25
2023/01/20 01:23:53;;;;;;;;;;;;;;;25.33;29.88;100217.81;5114146;28;1200;-29
2023/01/20 01:26:18;;;;;;;;;;;;;;;25.38;29.62;100218.13;5113530;28;1054;-26
2023/01/20 01:28:46;;;;;;;;;;;;;;;25.50;29.55;100223.88;5114008;28;1017;-28
2023/01/20 01:31:11;;;;;;;;;;;;;;;25.54;29.40;100227.88;5110734;28;2502;-26
2023/01/20 01:33:36;;;;;;;;;;;;;;;25.53;29.43;100218.13;5093263;28;995;-26
2023/01/20 01:36:02;;;;;;;;;;;;;;;25.56;29.62;100214.22;5113660;28;1960;-30
2023/01/20 01:38:27;;;;;;;;;;;;;;;25.60;29.69;100217.38;5113457;28;1006;-27
2023/01/20 01:40:53;;;;;;;;;;;;;;;25.60;29.64;100210.13;5113410;28;1122;-21
2023/01/20 01:43:22;;;;;;;;;;;;;;;25.61;29.70;100205.59;5104806;28;902;-21
2023/01/20 01:45:48;;;;;;;;;;;;;;;25.62;29.91;100215.34;5112829;28;1042;-21
2023/01/20 01:48:13;;;;;;;;;;;;;;;25.61;29.70;100208.28;5113118;28;1026;-21
2023/01/20 01:50:41;;;;;;;;;;;;;;;25.62;29.81;100207.25;5113665;28;1141;-21
2023/01/20 01:53:06;;;;;;;;;;;;;;;25.58;29.71;100190.63;5113089;28;1121;-21
2023/01/20 01:55:32;;;;;;;;;;;;;;;25.63;29.74;100198.19;5092501;28;1890;-21
2023/01/20 01:57:58;;;;;;;;;;;;;;;25.63;29.97;100198.19;5095132;28;1074;-21
2023/01/20 02:00:23;;;;;;;;;;;;;;;25.64;29.85;100187.22;5113029;28;1075;-21
2023/01/20 02:02:48;;;;;;;;;;;;;;;25.64;29.98;100194.47;5103588;28;2646;-21
2023/01/20 02:05:14;;;;;;;;;;;;;;;25.67;29.82;100200.31;5112989;28;1054;-21
2023/01/20 02:07:39;;;;;;;;;;;;;;;25.71;30.05;100197.25;5085845;28;849;-20
2023/01/20 02:10:05;;;;;;;;;;;;;;;25.71;30.17;100192.69;5089667;28;1153;-21
2023/01/20 02:12:30;;;;;;;;;;;;;;;25.71;30.06;100190.00;5101713;28;1062;-21
2023/01/20 02:14:56;;;;;;;;;;;;;;;25.66;30.28;100187.88;5104318;28;1952;-21
2023/01/20 02:17:27;;;;;;;;;;;;;;;25.70;30.36;100191.03;5074391;28;1002;-21
2023/01/20 02:20:01;;;;;;;;;;;;;;;25.80;30.32;100182.66;5070880;28;905;-21
2023/01/20 02:22:33;;;;;;;;;;;;;;;25.67;30.28;100181.44;5092429;28;1433;-21
2023/01/20 02:25:07;;;;;;;;;;;;;;;25.62;30.52;100189.25;5073815;28;1139;-21
2023/01/20 02:27:32;;;;;;;;;;;;;;;25.68;30.50;100179.59;5079779;28;1062;-21
2023/01/20 02:30:04;;;;;;;;;;;;;;;25.67;30.43;100181.44;5075803;28;1072;-21
2023/01/20 02:32:29;;;;;;;;;;;;;;;25.63;30.96;100179.31;5048316;28;2227;-21
2023/01/20 02:34:57;;;;;;;;;;;;;;;25.63;30.81;100182.88;5078946;28;1905;-21
2023/01/20 02:37:31;;;;;;;;;;;;;;;25.64;30.79;100184.53;5060743;28;1142;-21
2023/01/20 02:39:59;;;;;;;;;;;;;;;25.68;30.58;100183.13;5060857;28;1007;-21
2023/01/20 02:42:45;;;;;;;;;;;;;;;25.67;30.93;100176.06;5064283;28;1136;-20
2023/01/20 02:45:15;;;;;;;;;;;;;;;25.71;31.00;100181.09;5077975;28;1399;-21
2023/01/20 02:47:44;;;;;;;;;;;;;;;25.66;31.09;100174.41;5078437;28;1139;-21
2023/01/20 02:50:15;;;;;;;;;;;;;;;25.61;31.29;100163.31;5078388;28;1066;-21
2023/01/20 02:52:41;;;;;;;;;;;;;;;25.70;30.79;100168.63;5060646;28;1191;-21
2023/01/20 02:55:08;;;;;;;;;;;;;;;25.69;31.16;100167.81;5048986;28;1965;-21
2023/01/20 02:57:39;;;;;;;;;;;;;;;25.71;30.99;100160.38;5060389;28;1062;-22
2023/01/20 03:00:15;;;;;;;;;;;;;;;25.65;31.18;100161.97;5060472;28;1042;-21
2023/01/20 03:02:40;;;;;;;;;;;;;;;25.72;30.92;100162.06;5051948;28;2483;-22
2023/01/20 03:05:06;;;;;;;;;;;;;;;25.66;31.35;100169.00;5060184;28;1139;-21
2023/01/20 03:07:32;;;;;;;;;;;;;;;25.70;31.29;100165.94;5055031;28;885;-21
2023/01/20 03:09:57;;;;;;;;;;;;;;;25.69;31.39;100170.53;5054859;28;1191;-21
2023/01/20 03:12:28;;;;;;;;;;;;;;;25.61;31.33;100170.59;5049695;28;1063;-21
2023/01/20 03:14:53;;;;;;;;;;;;;;;25.65;31.23;100164.66;5071842;28;1957;-21
2023/01/20 03:17:19;;;;;;;;;;;;;;;25.60;31.66;100164.34;5097013;28;1027;-21
2023/01/20 03:19:44;;;;;;;;;;;;;;;25.65;31.31;100158.44;5084973;28;1125;-21
2023/01/20 03:22:09;;;;;;;;;;;;;;;25.62;31.68;100162.31;5097545;28;1233;-21
2023/01/20 03:24:34;;;;;;;;;;;;;;;25.71;30.81;100159.56;5097828;28;1102;-20
2023/01/20 03:27:00;;;;;;;;;;;;;;;25.69;30.86;100165.13;5098171;28;1113;-21
2023/01/20 03:29:25;;;;;;;;;;;;;;;25.64;31.14;100154.88;5097678;28;1042;-21
2023/01/20 03:31:51;;;;;;;;;;;;;;;25.69;30.76;100148.97;5078773;28;2323;-21
2023/01/20 03:34:20;;;;;;;;;;;;;;;25.82;30.91;100150.97;5088556;28;1965;-21
2023/01/20 03:36:45;;;;;;;;;;;;;;;25.66;30.77;100152.00;5096721;28;1131;-21
2023/01/20 03:39:11;;;;;;;;;;;;;;;25.54;31.11;100152.47;5095219;28;1114;-22
2023/01/20 03:41:45;;;;;;;;;;;;;;;25.78;31.79;100147.81;5096835;28;1042;-21
2023/01/20 03:44:11;;;;;;;;;;;;;;;25.78;31.27;100152.38;5078876;28;1257;-20
2023/01/20 03:46:52;;;;;;;;;;;;;;;25.71;31.60;100146.09;5082449;28;1311;-21
2023/01/20 03:49:23;;;;;;;;;;;;;;;25.65;31.92;100142.28;5084775;28;1335;-21
2023/01/20 03:52:00;;;;;;;;;;;;;;;25.63;32.14;100134.38;5069435;28;1066;-21
2023/01/20 03:54:27;;;;;;;;;;;;;;;25.57;32.63;100137.81;5071697;28;1967;-21
2023/01/20 03:57:08;;;;;;;;;;;;;;;25.60;32.41;100139.28;5092090;28;1039;-21
2023/01/20 03:59:34;;;;;;;;;;;;;;;25.55;32.64;100156.00;5097482;28;1177;-21
2023/01/20 04:02:01;;;;;;;;;;;;;;;25.49;32.79;100154.06;5091846;28;2395;-21
2023/01/20 04:04:28;;;;;;;;;;;;;;;25.50;32.70;100155.72;5089397;28;1099;-21
2023/01/20 04:06:53;;;;;;;;;;;;;;;25.53;32.62;100160.72;5090353;28;1070;-21
2023/01/20 04:09:22;;;;;;;;;;;;;;;25.50;32.51;100164.63;5087838;28;1139;-21
2023/01/20 04:11:48;;;;;;;;;;;;;;;25.52;32.80;100168.00;5095720;28;1190;-21
2023/01/20 04:14:13;;;;;;;;;;;;;;;25.46;32.89;100162.50;5093602;28;1971;-21
2023/01/20 04:16:38;;;;;;;;;;;;;;;25.48;32.88;100163.97;5076480;28;1097;-21
2023/01/20 04:19:04;;;;;;;;;;;;;;;25.46;33.04;100168.72;5053112;28;1143;-21
2023/01/20 04:21:39;;;;;;;;;;;;;;;25.50;32.92;100177.25;5074296;28;1027;-21
2023/01/20 04:24:23;;;;;;;;;;;;;;;25.47;32.63;100180.31;5058790;28;1060;-21
2023/01/20 04:26:48;;;;;;;;;;;;;;;25.44;32.94;100185.06;5076786;28;1103;-21
2023/01/20 04:29:13;;;;;;;;;;;;;;;25.43;32.64;100182.56;5062615;28;1154;-21
2023/01/20 04:31:39;;;;;;;;;;;;;;;25.69;32.61;100194.75;5063985;28;2250;-22
2023/01/20 04:34:04;;;;;;;;;;;;;;;25.64;33.04;100189.09;5063709;28;1894;-21
2023/01/20 04:36:29;;;;;;;;;;;;;;;25.62;32.93;100183.03;5076077;28;1102;-21
2023/01/20 04:38:55;;;;;;;;;;;;;;;25.63;32.77;100190.09;5075822;28;1031;-22
2023/01/20 04:41:20;;;;;;;;;;;;;;;25.67;32.53;100186.84;5063182;28;1247;-21
2023/01/20 04:43:45;;;;;;;;;;;;;;;25.65;31.91;100196.13;5066810;28;1082;-20
2023/01/20 04:46:11;;;;;;;;;;;;;;;25.62;32.29;100186.56;5062971;28;1194;-21
2023/01/20 04:48:36;;;;;;;;;;;;;;;24.81;31.30;100188.00;5076108;28;1119;-19
2023/01/20 04:51:05;;;;;;;;;;;;;;;23.38;32.23;100180.78;5075888;28;1162;-19
2023/01/20 04:53:30;;;;;;;;;;;;;;;23.59;33.88;100183.78;5076354;28;1059;-20
2023/01/20 04:55:56;;;;;;;;;;;;;;;24.46;31.83;100174.97;5073165;28;1963;-20
2023/01/20 04:58:21;;;;;;;;;;;;;;;24.61;31.44;100188.47;5075606;28;1089;-19
2023/01/20 05:00:46;;;;;;;;;;;;;;;24.58;31.14;100195.06;5075582;28;1003;-19
2023/01/20 05:03:12;;;;;;;;;;;;;;;23.41;32.03;100194.75;5067376;28;2474;-19
2023/01/20 05:05:37;;;;;;;;;;;;;;;22.86;32.76;100191.75;5075066;28;1046;-19
2023/01/20 05:08:03;;;;;;;;;;;;;;;22.93;32.74;100191.94;5065202;28;1047;-19
2023/01/20 05:10:29;;;;;;;;;;;;;;;22.60;33.16;100195.41;5075541;28;1005;-19
2023/01/20 05:12:54;;;;;;;;;;;;;;;22.38;33.43;100193.22;5075568;28;1079;-18
2023/01/20 05:15:20;;;;;;;;;;;;;;;22.38;33.31;100187.00;5075355;28;1972;-19
2023/01/20 05:17:45;;;;;;;;;;;;;;;22.36;33.29;100186.31;5076052;28;1162;-19
2023/01/20 05:20:10;;;;;;;;;;;;;;;22.33;33.46;100190.19;5070655;28;1035;-19
2023/01/20 05:22:36;;;;;;;;;;;;;;;22.33;33.51;100187.50;5075912;28;1030;-18
2023/01/20 05:25:01;;;;;;;;;;;;;;;22.35;33.30;100184.66;5076092;28;1222;-18
2023/01/20 05:27:26;;;;;;;;;;;;;;;22.66;32.59;100176.00;5074802;28;1014;-18
2023/01/20 05:29:51;;;;;;;;;;;;;;;22.54;32.87;100196.91;5065039;28;1026;-18
2023/01/20 05:32:17;;;;;;;;;;;;;;;23.28;31.92;100187.19;5038871;28;1748;-19
2023/01/20 05:34:42;;;;;;;;;;;;;;;23.63;31.55;100188.81;5073258;28;1973;-19
2023/01/20 05:37:07;;;;;;;;;;;;;;;23.82;31.64;100191.09;5075541;28;1186;-19
2023/01/20 05:39:32;;;;;;;;;;;;;;;23.93;31.77;100191.72;5070399;28;1125;-19
2023/01/20 05:41:58;;;;;;;;;;;;;;;24.11;31.70;100186.09;5049809;28;1064;-19
2023/01/20 05:44:23;;;;;;;;;;;;;;;24.18;31.92;100194.31;5070044;28;1119;-19
2023/01/20 05:46:48;;;;;;;;;;;;;;;24.32;31.63;100188.16;5063264;28;1089;-19
2023/01/20 05:49:14;;;;;;;;;;;;;;;24.49;31.34;100179.19;5055177;28;993;-19
2023/01/20 05:51:39;;;;;;;;;;;;;;;24.75;31.60;100186.03;5055596;28;1072;-19
2023/01/20 05:54:04;;;;;;;;;;;;;;;24.81;31.81;100188.84;5037910;28;1052;-20
2023/01/20 05:56:30;;;;;;;;;;;;;;;24.87;31.68;100187.28;5055584;28;1883;-19
2023/01/20 05:58:55;;;;;;;;;;;;;;;24.59;31.96;100195.88;5055705;28;1160;-19
2023/01/20 06:01:20;;;;;;;;;;;;;;;24.52;32.32;100195.78;5054081;28;1924;-19
2023/01/20 06:03:46;;;;;;;;;;;;;;;24.61;32.57;100206.50;5057835;28;981;-19
2023/01/20 06:06:16;;;;;;;;;;;;;;;24.67;32.31;100211.97;5059117;28;1004;-19
2023/01/20 06:08:41;;;;;;;;;;;;;;;24.65;32.46;100208.63;5060908;28;1502;-19
2023/01/20 06:11:06;;;;;;;;;;;;;;;24.66;32.42;100207.59;5058755;28;1016;-19
2023/01/20 06:13:32;;;;;;;;;;;;;;;24.82;32.37;100211.19;5059405;28;1233;-19
2023/01/20 06:15:57;;;;;;;;;;;;;;;24.86;32.44;100207.13;5058598;28;1909;-19
2023/01/20 06:18:22;;;;;;;;;;;;;;;24.84;32.37;100214.53;5058646;28;1095;-19
2023/01/20 06:20:47;;;;;;;;;;;;;;;24.87;32.18;100216.03;5059063;28;1167;-20
2023/01/20 06:23:13;;;;;;;;;;;;;;;25.05;32.12;100211.19;5061673;28;1096;-19
2023/01/20 06:25:38;;;;;;;;;;;;;;;24.99;32.40;100211.91;5057933;28;1015;-19
2023/01/20 06:28:03;;;;;;;;;;;;;;;24.94;32.35;100203.56;5066272;28;1020;-19
2023/01/20 06:30:29;;;;;;;;;;;;;;;25.17;32.32;100213.44;5061016;28;1215;-19
2023/01/20 06:32:56;;;;;;;;;;;;;;;24.92;32.45;100213.66;5057971;28;1898;-19
2023/01/20 06:35:22;;;;;;;;;;;;;;;25.08;32.12;100212.69;5058414;28;1906;-20
2023/01/20 06:37:47;;;;;;;;;;;;;;;25.08;32.15;100215.38;5063624;28;1074;-20
2023/01/20 06:40:13;;;;;;;;;;;;;;;24.72;31.40;100211.44;5057994;28;1220;-20
2023/01/20 06:42:39;;;;;;;;;;;;;;;24.64;31.03;100214.19;5062181;28;999;-20
2023/01/20 06:45:04;;;;;;;;;;;;;;;24.71;31.38;100209.75;5057998;28;1127;-20
2023/01/20 06:47:29;;;;;;;;;;;;;;;24.91;31.30;100211.97;5058863;28;1083;-20
2023/01/20 06:49:55;;;;;;;;;;;;;;;24.93;31.66;100204.56;5054155;28;1115;-19
2023/01/20 06:52:20;;;;;;;;;;;;;;;24.96;31.77;100204.19;5062665;28;1100;-19
2023/01/20 06:54:45;;;;;;;;;;;;;;;24.97;31.91;100199.66;5061158;28;1906;-19
2023/01/20 06:57:10;;;;;;;;;;;;;;;25.05;31.80;100194.22;5056117;28;1119;-19
2023/01/20 06:59:36;;;;;;;;;;;;;;;25.08;31.79;100201.91;5057670;28;1297;-19
2023/01/20 07:02:01;;;;;;;;;;;;;;;25.30;32.22;100194.81;5059512;28;1895;-19
2023/01/20 07:04:26;;;;;;;;;;;;;;;25.28;31.71;100187.94;5066725;28;991;-20
2023/01/20 07:06:52;;;;;;;;;;;;;;;24.55;31.74;100063.69;5049776;28;1039;-19
2023/01/20 07:09:17;;;;;;;;;;;;;;;25.15;32.31;100183.19;5057148;28;1191;-19
2023/01/20 07:11:42;;;;;;;;;;;;;;;25.22;31.99;100188.66;5057153;28;1020;-20
2023/01/20 07:14:07;;;;;;;;;;;;;;;25.20;31.76;100180.78;5053431;28;1278;-20
2023/01/20 07:16:33;;;;;;;;;;;;;;;25.15;31.71;100183.19;5047867;28;1910;-20
2023/01/20 07:18:58;;;;;;;;;;;;;;;25.03;31.29;100183.63;5057227;28;1167;-20
2023/01/20 07:21:24;;;;;;;;;;;;;;;25.06;30.90;100183.25;5057114;28;872;-20
2023/01/20 07:23:49;;;;;;;;;;;;;;;25.10;30.70;100188.28;5057258;28;1077;-20
2023/01/20 07:26:18;;;;;;;;;;;;;;;25.17;30.56;100178.47;5057299;28;1016;-20
2023/01/20 07:28:43;;;;;;;;;;;;;;;24.99;30.44;100176.13;5057586;28;1087;-20
2023/01/20 07:31:10;;;;;;;;;;;;;;;24.88;30.24;100177.34;5056385;28;1777;-20
2023/01/20 07:33:35;;;;;;;;;;;;;;;24.95;30.28;100178.31;5051097;28;888;-20
2023/01/20 07:36:00;;;;;;;;;;;;;;;24.92;29.92;100176.81;5057240;28;1902;-20
2023/01/20 07:38:26;;;;;;;;;;;;;;;24.89;29.79;100182.53;5057337;28;1000;-20
2023/01/20 07:40:51;;;;;;;;;;;;;;;24.82;29.45;100174.34;5057307;28;1301;-20
2023/01/20 07:43:17;;;;;;;;;;;;;;;24.67;29.80;100174.31;5057398;28;1103;-20
2023/01/20 07:45:42;;;;;;;;;;;;;;;24.73;29.99;100178.13;5056955;28;1016;-20
2023/01/20 07:48:07;;;;;;;;;;;;;;;24.72;29.62;100172.94;5056853;28;1062;-20
2023/01/20 07:50:33;;;;;;;;;;;;;;;24.73;29.59;100180.84;5057199;28;1112;-20
2023/01/20 07:52:58;;;;;;;;;;;;;;;24.66;29.59;100179.88;5056859;28;1042;-20
2023/01/20 07:55:24;;;;;;;;;;;;;;;24.62;29.87;100179.41;5050363;28;1897;-20
2023/01/20 07:57:49;;;;;;;;;;;;;;;24.82;29.67;100176.22;5056731;28;824;-20
2023/01/20 08:00:16;;;;;;;;;;;;;;;24.86;29.37;100172.16;5056297;28;1043;-20
2023/01/20 08:02:41;;;;;;;;;;;;;;;24.67;29.61;100162.72;5043760;28;1796;-19
2023/01/20 08:05:07;;;;;;;;;;;;;;;24.66;29.65;100179.88;5057720;28;1079;-20
2023/01/20 08:07:32;;;;;;;;;;;;;;;24.98;29.67;100174.41;5061865;28;1055;-20
2023/01/20 08:09:57;;;;;;;;;;;;;;;24.91;30.12;100172.47;5061491;28;910;-20
2023/01/20 08:12:23;;;;;;;;;;;;;;;25.23;29.75;100175.03;5046022;28;1207;-20
2023/01/20 08:14:48;;;;;;;;;;;;;;;25.06;29.88;100158.19;5048981;28;1981;-19
2023/01/20 08:17:14;;;;;;;;;;;;;;;24.90;30.38;100175.31;5060736;28;1039;-19
2023/01/20 08:19:39;;;;;;;;;;;;;;;24.90;30.34;100161.84;5058486;28;1000;-19
2023/01/20 08:22:04;;;;;;;;;;;;;;;25.03;30.34;100166.63;5060066;28;1079;-20
2023/01/20 08:24:29;;;;;;;;;;;;;;;24.94;30.29;100153.25;5055781;28;1171;-20
2023/01/20 08:26:55;;;;;;;;;;;;;;;25.08;30.38;100156.16;5068217;28;1037;-19
2023/01/20 08:29:20;;;;;;;;;;;;;;;25.03;30.65;100169.34;5055904;28;1540;-20
2023/01/20 08:31:45;;;;;;;;;;;;;;;25.12;30.51;100170.94;5060791;28;1912;-20
2023/01/20 08:34:11;;;;;;;;;;;;;;;25.16;30.46;100161.47;5049466;28;957;-19
2023/01/20 08:36:36;;;;;;;;;;;;;;;25.13;30.52;100169.06;5054000;28;1952;-19
2023/01/20 08:39:03;;;;;;;;;;;;;;;25.36;30.09;100165.50;5027703;28;1156;-20
2023/01/20 08:41:29;;;;;;;;;;;;;;;25.32;30.44;100170.41;5048570;28;1250;-19
2023/01/20 08:43:54;;;;;;;;;;;;;;;25.23;30.58;100171.47;5048328;28;1234;-20
2023/01/20 08:46:19;;;;;;;;;;;;;;;25.17;30.56;100156.94;5050983;28;1124;-19
2023/01/20 08:48:45;;;;;;;;;;;;;;;25.39;30.62;100168.63;5045390;28;1255;-19
2023/01/20 08:51:12;;;;;;;;;;;;;;;25.42;30.41;100162.84;5045191;28;1245;-20
2023/01/20 08:53:38;;;;;;;;;;;;;;;25.39;30.43;100154.34;5044801;28;1076;-19
2023/01/20 08:56:03;;;;;;;;;;;;;;;25.46;30.54;100151.75;5046605;28;1943;-19
2023/01/20 08:58:29;;;;;;;;;;;;;;;25.43;30.67;100148.41;5048493;28;1171;-20
2023/01/20 09:00:54;;;;;;;;;;;;;;;25.47;30.31;100132.69;5047602;28;1143;-19
2023/01/20 09:03:20;;;;;;;;;;;;;;;25.52;30.38;100141.06;5046688;28;2082;-20
2023/01/20 09:05:45;;;;;;;;;;;;;;;25.52;30.36;100142.91;5045694;28;1163;-20
2023/01/20 09:08:10;;;;;;;;;;;;;;;25.61;30.34;100132.88;5044896;28;1211;-20
2023/01/20 09:10:36;;;;;;;;;;;;;;;25.62;30.35;100129.16;5048058;28;1140;-19
2023/01/20 09:13:01;;;;;;;;;;;;;;;25.63;30.35;100130.84;5044003;28;1148;-19
2023/01/20 09:15:26;;;;;;;;;;;;;;;25.63;30.40;100125.44;5056622;28;1913;-20
2023/01/20 09:17:51;;;;;;;;;;;;;;;25.74;30.07;100124.16;5075449;28;1079;-20
2023/01/20 09:20:17;;;;;;;;;;;;;;;25.43;30.48;100126.84;5075210;28;1014;-20
2023/01/20 09:22:42;;;;;;;;;;;;;;;25.72;29.90;100110.88;5062724;28;1198;-19
2023/01/20 09:25:08;;;;;;;;;;;;;;;25.72;29.76;100124.34;5074924;28;1076;-19
2023/01/20 09:27:33;;;;;;;;;;;;;;;25.76;29.69;100106.75;5075867;28;1076;-19
2023/01/20 09:29:58;;;;;;;;;;;;;;;26.08;29.42;100101.09;5071059;28;1072;-19
2023/01/20 09:32:24;;;;;;;;;;;;;;;26.00;29.83;100101.22;5068044;28;1827;-19
2023/01/20 09:34:49;;;;;;;;;;;;;;;25.84;30.00;100097.72;5060154;28;1906;-19
2023/01/20 09:45:37;;;;;;;;;;;;;;;25.82;29.73;100082.78;5061372;28;1146;-19
2023/01/20 09:48:13;;;;;;;;;;;;;;;25.79;29.78;100092.91;5060757;28;1087;-20
2023/01/20 09:53:29;;;;;;;;;;;;;;;25.95;29.52;100072.16;5063886;28;977;-19
2023/01/20 09:55:55;;;;;;;;;;;;;;;25.91;30.04;100070.84;5078570;28;1902;-20
2023/01/20 09:58:40;;;;;;;;;;;;;;;26.04;29.55;100064.78;5079239;28;881;-19
2023/01/20 10:01:17;;;;;;;;;;;;;;;25.97;29.39;100061.19;5078814;28;1938;-19
2023/01/20 10:03:54;;;;;;;;;;;;;;;25.93;29.70;100055.34;5071064;28;1083;-19
2023/01/20 10:06:23;;;;;;;;;;;;;;;25.94;29.32;100048.09;5078797;28;1044;-19
2023/01/20 10:08:57;;;;;;;;;;;;;;;25.87;29.67;100048.88;5079005;28;1135;-19
2023/01/20 10:11:23;;;;;;;;;;;;;;;25.97;29.66;100031.53;5078671;28;892;-19
2023/01/20 10:13:55;;;;;;;;;;;;;;;25.92;29.81;100024.03;5078597;28;1147;-19
2023/01/20 10:16:27;;;;;;;;;;;;;;;25.86;29.59;100016.72;5058769;28;1906;-19
2023/01/20 10:19:13;;;;;;;;;;;;;;;25.66;29.46;100015.47;5040759;28;1160;-19
2023/01/20 10:21:47;;;;;;;;;;;;;;;25.59;29.58;99989.47;5035364;28;1751;-19
2023/01/20 10:24:14;;;;;;;;;;;;;;;25.71;29.58;99996.03;5048908;28;1157;-18
2023/01/20 10:26:40;;;;;;;;;;;;;;;25.96;29.22;99989.47;5038772;28;963;-19
2023/01/20 10:29:06;;;;;;;;;;;;;;;25.96;29.02;99992.16;5058976;28;1107;-19
2023/01/20 10:31:32;;;;;;;;;;;;;;;26.00;28.78;99993.41;5067624;28;1781;-19
2023/01/20 10:34:05;;;;;;;;;;;;;;;25.98;29.12;99987.38;5045195;28;1208;-19
2023/01/20 10:36:30;;;;;;;;;;;;;;;26.14;28.84;99983.59;5037216;28;1963;-20
2023/01/20 10:39:03;;;;;;;;;;;;;;;26.12;28.60;99978.41;5047213;28;1206;-19
2023/01/20 10:41:37;;;;;;;;;;;;;;;26.15;29.00;99983.41;5034948;28;973;-19
2023/01/20 10:44:03;;;;;;;;;;;;;;;26.13;29.04;99974.66;5040164;28;1069;-19
2023/01/20 10:46:31;;;;;;;;;;;;;;;26.49;28.45;99964.78;5049122;28;1238;-19
2023/01/20 10:49:08;;;;;;;;;;;;;;;26.57;28.14;99958.41;5046981;28;1246;-19
2023/01/20 10:51:36;;;;;;;;;;;;;;;26.83;28.17;99940.69;5030005;28;993;-19
2023/01/20 10:54:08;;;;;;;;;;;;;;;26.84;27.94;99936.94;5030671;28;1164;-19
2023/01/20 10:56:35;;;;;;;;;;;;;;;27.08;27.63;99945.56;5025573;28;1910;-19
2023/01/20 10:59:14;;;;;;;;;;;;;;;27.02;27.82;99932.91;5058093;28;899;-19
2023/01/20 11:01:39;;;;;;;;;;;;;;;27.02;27.81;99906.75;5039443;28;2034;-19
2023/01/20 11:04:05;;;;;;;;;;;;;;;27.25;27.43;99932.56;5052159;28;1242;-20
2023/01/20 11:06:30;;;;;;;;;;;;;;;27.25;27.62;99931.72;5057864;28;1396;-19
2023/01/20 11:08:55;;;;;;;;;;;;;;;27.18;27.78;99911.94;5055024;28;1030;-19
2023/01/20 11:11:22;;;;;;;;;;;;;;;27.33;27.65;99917.19;5054704;28;1199;-19
2023/01/20 11:13:47;;;;;;;;;;;;;;;27.20;27.58;99910.72;5055324;28;1257;-19
2023/01/20 11:16:15;;;;;;;;;;;;;;;27.39;27.03;99910.97;5056654;28;1987;-19
2023/01/20 11:18:40;;;;;;;;;;;;;;;27.20;27.69;99907.19;5036017;28;1192;-19
2023/01/20 11:21:07;;;;;;;;;;;;;;;27.28;27.89;99896.19;5048215;28;1235;-19
2023/01/20 11:23:32;;;;;;;;;;;;;;;27.20;27.93;99889.13;5033251;28;1239;-19
2023/01/20 11:25:58;;;;;;;;;;;;;;;27.22;27.59;99878.13;5048293;28;1285;-19
2023/01/20 11:28:24;;;;;;;;;;;;;;;27.30;27.79;99887.88;5031274;28;1211;-19
2023/01/20 11:30:50;;;;;;;;;;;;;;;27.08;27.90;99882.66;5029548;28;1160;-19
2023/01/20 11:33:15;;;;;;;;;;;;;;;26.96;28.05;99883.22;5047594;28;1891;-19
2023/01/20 11:35:44;;;;;;;;;;;;;;;26.97;28.07;99879.50;5049162;28;1967;-19
2023/01/20 11:38:22;;;;;;;;;;;;;;;27.04;27.81;99874.16;5028971;28;1195;-19
2023/01/20 11:40:50;;;;;;;;;;;;;;;27.04;27.99;99876.00;5047679;28;1085;-19
2023/01/20 11:43:26;;;;;;;;;;;;;;;27.03;28.61;99880.56;5046653;28;1285;-19
2023/01/20 11:45:51;;;;;;;;;;;;;;;27.14;28.22;99885.38;5047358;28;1117;-19
2023/01/20 11:48:17;;;;;;;;;;;;;;;26.78;27.92;99873.00;5030450;28;1001;-19
2023/01/20 11:50:45;;;;;;;;;;;;;;;26.60;27.70;99881.63;5045743;28;1195;-19
2023/01/20 11:53:16;;;;;;;;;;;;;;;26.90;27.35;99876.78;5046069;28;1203;-19
2023/01/20 11:55:49;;;;;;;;;;;;;;;26.69;27.88;99866.97;5045349;28;1901;-19
2023/01/20 11:58:24;;;;;;;;;;;;;;;26.74;28.38;99863.66;5030187;28;1203;-20
2023/01/20 12:00:59;;;;;;;;;;;;;;;26.79;28.01;99863.88;5051483;28;1148;-19
2023/01/20 12:03:33;;;;;;;;;;;;;;;26.92;27.59;99873.03;5050635;28;2014;-20
2023/01/20 12:06:07;;;;;;;;;;;;;;;27.08;27.50;99877.25;5033070;28;1254;-20
2023/01/20 12:08:49;;;;;;;;;;;;;;;27.05;27.97;99867.72;5055320;28;1235;-20
2023/01/20 12:11:32;;;;;;;;;;;;;;;27.12;27.71;99865.88;5055938;28;1176;-20
2023/01/20 12:16:43;;;;;;;;;;;;;;;27.00;27.51;99849.41;5033132;28;1968;-20
2023/01/20 12:19:10;;;;;;;;;;;;;;;26.85;28.17;99852.28;5053537;28;1175;-20
2023/01/20 12:21:37;;;;;;;;;;;;;;;26.72;27.97;99847.66;5049950;28;1290;-20
2023/01/20 12:24:08;;;;;;;;;;;;;;;26.82;28.28;99849.97;5029749;28;1192;-19
2023/01/20 12:26:33;;;;;;;;;;;;;;;27.08;27.67;99847.56;5047425;28;1353;-20
2023/01/20 12:28:59;;;;;;;;;;;;;;;27.26;27.42;99852.38;5045481;28;1195;-20
2023/01/20 12:31:24;;;;;;;;;;;;;;;27.12;27.60;99846.13;5046336;28;1946;-20
2023/01/20 12:33:50;;;;;;;;;;;;;;;27.37;26.93;99837.44;5046302;28;1406;-20
2023/01/20 12:36:15;;;;;;;;;;;;;;;27.20;27.22;99835.13;5047241;28;1902;-19
2023/01/20 12:38:56;;;;;;;;;;;;;;;27.21;27.67;99846.78;5053044;28;1191;-20
2023/01/20 12:41:28;;;;;;;;;;;;;;;27.22;27.75;99846.56;5052441;28;1200;-20
2023/01/20 12:44:01;;;;;;;;;;;;;;;27.29;27.19;99840.34;5035200;28;1159;-19
2023/01/20 12:46:29;;;;;;;;;;;;;;;27.11;27.27;99841.78;5031296;28;1208;-20
2023/01/20 12:48:57;;;;;;;;;;;;;;;27.04;27.60;99841.75;5042507;28;1223;-20
2023/01/20 12:51:38;;;;;;;;;;;;;;;26.92;27.90;99837.97;5045433;28;1199;-20
2023/01/20 12:54:06;;;;;;;;;;;;;;;26.80;28.28;99837.72;5045729;28;1180;-19
2023/01/20 12:56:44;;;;;;;;;;;;;;;26.71;28.30;99839.78;5056399;28;1879;-20
2023/01/20 12:59:21;;;;;;;;;;;;;;;26.70;28.14;99830.84;5050835;28;1016;-19
2023/01/20 13:01:49;;;;;;;;;;;;;;;26.69;28.21;99828.34;5049936;28;1863;-20
2023/01/20 13:04:18;;;;;;;;;;;;;;;26.67;28.56;99831.25;5047359;28;1227;-19
2023/01/20 13:06:55;;;;;;;;;;;;;;;26.61;28.77;99813.19;5041329;28;1361;-20
2023/01/20 13:09:26;;;;;;;;;;;;;;;26.51;29.13;99818.94;5046197;28;1152;-19
2023/01/20 13:11:52;;;;;;;;;;;;;;;26.80;28.56;99822.34;5049104;28;1117;-20
2023/01/20 13:14:22;;;;;;;;;;;;;;;26.82;28.28;99827.56;5054998;28;1099;-19
2023/01/20 13:16:57;;;;;;;;;;;;;;;26.68;28.67;99829.38;5065306;28;1917;-20
2023/01/20 13:19:32;;;;;;;;;;;;;;;26.75;28.54;99841.03;5053361;28;1000;-20